logo tempoitalia

Diretta Meteo Ostrava-Mosnov, Repubblica Cecalunedì 31 agosto ore 07:00

Mappa
Sereno 17 °C Sereno 24 Ore: T.min 15 T.max 28
Ponente Nord Km/h 1.8 Punto di rugiada: 14 °C Umidità: 82% Visibilità: 10 Km
Il sole sorge alle: 06:01 Il sole tramonta alle: 19:34
31 Agosto 2026 07:00 tempo osservato: Sereno Sereno 17 82 1015 vento: Nord N 1.8
31 Agosto 2026 06:30 tempo osservato: Sereno Sereno 16 82 1015 vento: Nord N 1.8
31 Agosto 2026 06:00 tempo osservato: Sereno Sereno 16 82 1015 vento: Nord N 5.5
31 Agosto 2026 05:30 tempo osservato: Sereno Sereno 15 87 1015 vento: Nord N 5.5
31 Agosto 2026 05:00 tempo osservato: Sereno Sereno 15 82 1015 vento: Nord N 3.7
31 Agosto 2026 04:30 tempo osservato: Sereno Sereno 15 87 1015 vento: Nord SO 7.4
31 Agosto 2026 04:00 tempo osservato: Sereno Sereno 16 82 1015 vento: Nord SO 7.4
31 Agosto 2026 03:30 tempo osservato: Sereno Sereno 16 82 1015 vento: Nord SO 9.3
31 Agosto 2026 03:00 tempo osservato: Sereno Sereno 16 82 1015 vento: Nord SO 9.3
31 Agosto 2026 02:30 tempo osservato: Sereno Sereno 17 77 1016 vento: Nord N 5.5
31 Agosto 2026 02:00 tempo osservato: Sereno Sereno 17 82 1016 vento: Nord N 5.5
31 Agosto 2026 01:30 tempo osservato: Sereno Sereno 18 72 1016 vento: Nord SO 7.4
31 Agosto 2026 01:00 tempo osservato: Sereno Sereno 18 72 1016 vento: Nord S/SO 9.3
31 Agosto 2026 00:30 tempo osservato: Sereno Sereno 20 68 1016 vento: Nord N 5.5
31 Agosto 2026 00:00 tempo osservato: Sereno Sereno 20 68 1015 vento: Nord N 3.7
30 Agosto 2026 23:30 tempo osservato: Sereno Sereno 19 72 1016 vento: Nord N 5.5
30 Agosto 2026 23:00 tempo osservato: Sereno Sereno 21 64 1015 vento: Nord N 5.5
30 Agosto 2026 22:30 tempo osservato: Sereno Sereno 19 82 1015 vento: Nord N 3.7
30 Agosto 2026 22:00 tempo osservato: Sereno Sereno 20 64 1015 vento: Nord N 3.7
30 Agosto 2026 21:30 tempo osservato: Sereno Sereno 20 64 1015 vento: Nord N 5.5
30 Agosto 2026 21:00 tempo osservato: Sereno Sereno 22 53 1015 vento: Nord N 5.5
30 Agosto 2026 20:30 tempo osservato: Sereno Sereno 23 49 1015 vento: Nord S/SE 9.3
30 Agosto 2026 20:00 tempo osservato: Sereno Sereno 24 50 1015 vento: Nord S/SE 7.4
30 Agosto 2026 19:30 tempo osservato: Sereno Sereno 25 44 1014 vento: Nord S 7.4
30 Agosto 2026 19:00 tempo osservato: Sereno Sereno 26 41 1014 vento: Nord S 9.3
30 Agosto 2026 18:30 tempo osservato: Sereno Sereno 26 41 1014 vento: Nord S/SO 14.8
30 Agosto 2026 18:00 tempo osservato: Sereno Sereno 27 39 1015 vento: Nord SO 18.5
30 Agosto 2026 17:30 tempo osservato: Sereno Sereno 28 37 1015 vento: Nord SO 20.3
30 Agosto 2026 17:00 tempo osservato: Sereno Sereno 28 37 1015 vento: Nord SO 20.3
30 Agosto 2026 16:30 tempo osservato: Sereno Sereno 28 37 1015 vento: Nord SO 24
30 Agosto 2026 16:00 tempo osservato: Sereno Sereno 28 34 1015 vento: Nord SO 24
30 Agosto 2026 15:30 tempo osservato: Sereno Sereno 27 36 1015 vento: Nord SO 27.8
30 Agosto 2026 15:00 tempo osservato: Sereno Sereno 26 41 1015 vento: Nord SO 27.8
30 Agosto 2026 14:30 tempo osservato: Sereno Sereno 28 37 1016 vento: Nord SO 24
30 Agosto 2026 14:00 tempo osservato: Sereno Sereno 27 36 1016 vento: Nord SO 25.9
30 Agosto 2026 13:30 tempo osservato: Sereno Sereno 27 39 1016 vento: Nord O/SO 22.2
30 Agosto 2026 13:00 tempo osservato: Sereno Sereno 27 39 1016 vento: Nord SO 22.2
30 Agosto 2026 12:30 tempo osservato: Sereno Sereno 26 39 1016 vento: Nord SO 24
30 Agosto 2026 12:00 tempo osservato: Sereno Sereno 26 44 1017 vento: Nord SO 20.3
30 Agosto 2026 11:30 tempo osservato: Poco Nuvoloso Poco Nuvoloso 25 50 1017 vento: Nord O/SO 18.5
30 Agosto 2026 11:00 tempo osservato: Sereno Sereno 24 53 1017 vento: Nord SO 18.5
30 Agosto 2026 10:30 tempo osservato: Sereno Sereno 23 56 1017 vento: Nord SO 13
30 Agosto 2026 10:00 tempo osservato: Sereno Sereno 22 64 1017 vento: Nord O/SO 13
30 Agosto 2026 09:30 tempo osservato: Sereno Sereno 20 72 1017 vento: Nord O/SO 7.4
30 Agosto 2026 09:00 tempo osservato: Sereno Sereno 18 82 1017 vento: Nord O/SO 9.3
30 Agosto 2026 08:30 tempo osservato: Sereno Sereno 17 82 1017 vento: Nord O/SO 11.1
30 Agosto 2026 08:00 tempo osservato: Sereno Sereno 16 82 1017 vento: Nord SO 9.3